createdAt,value
2022-12-01T00:01:42.706Z,92.20
2022-12-01T00:04:11.602Z,92.20
2022-12-01T00:06:41.714Z,92.20
2022-12-01T00:09:28.103Z,92.20
2022-12-01T00:11:56.832Z,92.20
2022-12-01T00:14:25.461Z,92.20
2022-12-01T00:16:53.958Z,92.20
2022-12-01T00:19:26.668Z,92.20
2022-12-01T00:21:56.479Z,92.20
2022-12-01T00:24:25.411Z,92.20
2022-12-01T00:26:53.813Z,92.30
2022-12-01T00:29:22.218Z,92.20
2022-12-01T00:31:52.795Z,92.20
2022-12-01T00:34:25.130Z,92.20
2022-12-01T00:36:53.582Z,92.20
2022-12-01T00:39:23.997Z,92.20
2022-12-01T00:41:52.939Z,92.20
2022-12-01T00:44:21.480Z,92.20
2022-12-01T00:46:50.333Z,92.20
2022-12-01T00:49:18.768Z,92.20
2022-12-01T00:51:47.202Z,92.20
2022-12-01T00:54:15.574Z,92.20
2022-12-01T00:56:45.645Z,92.20
2022-12-01T00:59:14.605Z,92.20
2022-12-01T01:01:43.080Z,92.20
2022-12-01T01:04:11.632Z,92.20
2022-12-01T01:06:40.184Z,92.20
2022-12-01T01:09:09.049Z,92.20
2022-12-01T01:11:37.517Z,92.20
2022-12-01T01:14:08.288Z,92.20
2022-12-01T01:16:36.894Z,92.20
2022-12-01T01:19:05.603Z,92.20
2022-12-01T01:21:34.035Z,92.20
2022-12-01T01:24:02.649Z,92.20
2022-12-01T01:26:32.921Z,92.20
2022-12-01T01:29:04.253Z,92.20
2022-12-01T01:31:34.566Z,92.20
2022-12-01T01:34:03.832Z,92.20
2022-12-01T01:36:32.653Z,92.20
2022-12-01T01:39:02.395Z,92.20
2022-12-01T01:41:31.141Z,92.20
2022-12-01T01:44:01.779Z,92.70
2022-12-01T01:46:34.844Z,92.20
2022-12-01T01:49:05.857Z,92.20
2022-12-01T01:51:39.878Z,92.20
2022-12-01T01:54:15.788Z,92.20
2022-12-01T01:56:45.770Z,92.20
2022-12-01T01:59:18.042Z,92.20
2022-12-01T02:01:51.228Z,92.20
2022-12-01T02:04:22.029Z,92.20
2022-12-01T02:06:50.446Z,92.20
2022-12-01T02:09:19.026Z,92.20
2022-12-01T02:11:59.516Z,92.20
2022-12-01T02:14:42.717Z,92.10
2022-12-01T02:17:24.385Z,92.20
2022-12-01T02:20:14.135Z,92.20
2022-12-01T02:22:54.022Z,92.10
2022-12-01T02:25:34.960Z,92.20
2022-12-01T02:28:41.821Z,92.20
2022-12-01T02:31:16.524Z,92.20
2022-12-01T02:33:55.518Z,92.10
2022-12-01T02:36:34.354Z,92.10
2022-12-01T02:39:10.096Z,92.10
2022-12-01T02:41:44.656Z,92.10
2022-12-01T02:44:19.566Z,92.20
2022-12-01T02:46:57.040Z,92.20
2022-12-01T02:49:30.016Z,92.20
2022-12-01T02:51:59.727Z,92.20
2022-12-01T02:54:32.455Z,92.10
2022-12-01T02:57:01.958Z,92.10
2022-12-01T02:59:30.437Z,92.10
2022-12-01T03:02:10.986Z,92.10
2022-12-01T03:04:53.535Z,92.10
2022-12-01T03:07:44.405Z,92.20
2022-12-01T03:10:21.332Z,92.10
2022-12-01T03:13:06.656Z,92.10
2022-12-01T03:15:39.778Z,92.10
2022-12-01T03:18:20.979Z,92.10
2022-12-01T03:20:54.835Z,92.10
2022-12-01T03:23:27.832Z,92.10
2022-12-01T03:26:00.143Z,92.10
2022-12-01T03:28:33.601Z,92.10
2022-12-01T03:31:08.270Z,92.10
2022-12-01T03:33:42.242Z,92.10
2022-12-01T03:36:15.184Z,92.10
2022-12-01T03:38:48.216Z,92.10
2022-12-01T03:41:20.988Z,92.10
2022-12-01T03:43:57.098Z,92.10
2022-12-01T03:46:38.107Z,92.20
2022-12-01T03:49:09.754Z,92.10
2022-12-01T03:51:49.304Z,92.10
2022-12-01T03:54:20.955Z,92.10
2022-12-01T03:56:54.715Z,92.10
2022-12-01T03:59:25.843Z,92.10
2022-12-01T04:01:54.441Z,92.10
2022-12-01T04:04:24.353Z,92.10
2022-12-01T04:06:52.984Z,92.10
2022-12-01T04:09:21.538Z,92.10
2022-12-01T04:12:07.206Z,92.10
2022-12-01T04:14:36.390Z,92.10
2022-12-01T04:17:04.835Z,92.10
2022-12-01T04:19:34.729Z,92.10
2022-12-01T04:22:03.373Z,92.10
2022-12-01T04:24:31.872Z,92.10
2022-12-01T04:27:00.430Z,92.10
2022-12-01T04:29:29.108Z,92.10
2022-12-01T04:31:57.585Z,92.60
2022-12-01T04:34:26.096Z,92.10
2022-12-01T04:36:56.195Z,92.10
2022-12-01T04:39:24.786Z,92.60
2022-12-01T04:41:53.251Z,92.10
2022-12-01T04:44:21.730Z,92.60
2022-12-01T04:46:51.956Z,92.10
2022-12-01T04:49:22.641Z,92.10
2022-12-01T04:51:51.685Z,92.10
2022-12-01T04:54:22.295Z,92.10
2022-12-01T04:56:51.886Z,92.20
2022-12-01T04:59:20.469Z,92.10
2022-12-01T05:01:49.139Z,92.10
2022-12-01T05:04:17.774Z,92.10
2022-12-01T05:06:46.212Z,92.60
2022-12-01T05:09:17.811Z,92.10
2022-12-01T05:11:48.506Z,92.10
2022-12-01T05:14:17.064Z,92.10
2022-12-01T05:16:45.735Z,92.10
2022-12-01T05:19:31.742Z,92.10
2022-12-01T05:22:00.696Z,92.10
2022-12-01T05:24:29.270Z,92.10
2022-12-01T05:26:59.162Z,92.10
2022-12-01T05:29:27.695Z,92.10
2022-12-01T05:31:56.193Z,92.10
2022-12-01T05:34:24.872Z,92.10
2022-12-01T05:36:54.053Z,92.10
2022-12-01T05:39:22.541Z,92.10
2022-12-01T05:41:53.906Z,92.10
2022-12-01T05:44:23.720Z,92.00
2022-12-01T05:46:52.197Z,92.00
2022-12-01T05:49:21.267Z,92.10
2022-12-01T05:51:50.271Z,92.00
2022-12-01T05:54:19.306Z,92.10
2022-12-01T05:56:47.932Z,92.10
2022-12-01T05:59:16.420Z,92.00
2022-12-01T06:01:46.472Z,92.10
2022-12-01T06:04:16.582Z,92.10
2022-12-01T06:06:45.077Z,92.10
2022-12-01T06:09:14.120Z,92.10
2022-12-01T06:11:44.025Z,92.10
2022-12-01T06:14:12.522Z,92.10
2022-12-01T06:16:41.640Z,92.10
2022-12-01T06:19:11.831Z,92.10
2022-12-01T06:21:40.720Z,92.20
2022-12-01T06:24:09.485Z,92.40
2022-12-01T06:26:37.970Z,92.30
2022-12-01T06:29:06.393Z,92.30
2022-12-01T06:31:35.416Z,92.20
2022-12-01T06:34:03.919Z,92.20
2022-12-01T06:36:33.773Z,92.20
2022-12-01T06:39:02.439Z,92.20
2022-12-01T06:41:30.978Z,92.20
2022-12-01T06:44:00.207Z,92.20
2022-12-01T06:46:28.807Z,92.20
2022-12-01T06:48:57.425Z,92.20
2022-12-01T06:51:26.009Z,92.10
2022-12-01T06:54:00.818Z,92.10
2022-12-01T06:56:32.570Z,92.10
2022-12-01T06:59:01.587Z,92.10
2022-12-01T07:01:30.553Z,92.10
2022-12-01T07:03:59.148Z,92.10
2022-12-01T07:06:27.679Z,92.10
2022-12-01T07:08:57.836Z,92.10
2022-12-01T07:11:26.319Z,92.10
2022-12-01T07:13:57.252Z,92.10
2022-12-01T07:16:26.581Z,92.10
2022-12-01T07:18:56.140Z,92.10
2022-12-01T07:21:25.302Z,92.10
2022-12-01T07:23:54.478Z,92.10
2022-12-01T07:26:25.361Z,92.10
2022-12-01T07:28:54.807Z,92.00
2022-12-01T07:31:27.149Z,92.10
2022-12-01T07:33:56.317Z,92.10
2022-12-01T07:36:25.044Z,92.10
2022-12-01T07:38:54.042Z,92.10
2022-12-01T07:41:27.648Z,92.10
2022-12-01T07:43:56.903Z,92.10
2022-12-01T07:46:29.722Z,92.10
2022-12-01T07:48:59.573Z,92.10
2022-12-01T07:51:28.533Z,92.10
2022-12-01T07:53:57.775Z,92.10
2022-12-01T07:56:27.630Z,92.10
2022-12-01T07:58:57.537Z,92.10
2022-12-01T08:01:27.120Z,92.00
2022-12-01T08:03:57.766Z,92.10
2022-12-01T08:06:28.523Z,92.10
2022-12-01T08:08:58.953Z,92.10
2022-12-01T08:11:31.000Z,92.10
2022-12-01T08:13:59.572Z,92.00
2022-12-01T08:16:28.351Z,92.10
2022-12-01T08:18:57.062Z,92.10
2022-12-01T08:21:26.671Z,92.00
2022-12-01T08:23:57.082Z,92.10
2022-12-01T08:26:26.715Z,92.00
2022-12-01T08:28:57.968Z,92.00
2022-12-01T08:31:28.827Z,92.10
2022-12-01T08:33:58.676Z,92.00
2022-12-01T08:36:27.907Z,92.00
2022-12-01T08:38:57.745Z,92.00
2022-12-01T08:41:26.704Z,92.00
2022-12-01T08:43:59.605Z,92.00
2022-12-01T08:46:33.262Z,92.10
2022-12-01T08:49:02.245Z,92.00
2022-12-01T08:51:30.992Z,92.00
2022-12-01T08:54:00.411Z,92.00
2022-12-01T08:56:31.837Z,92.00
2022-12-01T08:59:02.312Z,92.00
2022-12-01T09:01:30.954Z,92.10
2022-12-01T09:04:07.812Z,92.10
2022-12-01T09:06:40.860Z,92.00
2022-12-01T09:09:10.661Z,92.00
2022-12-01T09:11:39.943Z,92.00
2022-12-01T09:14:10.505Z,92.00
2022-12-01T09:16:39.234Z,92.00
2022-12-01T09:19:08.453Z,92.00
2022-12-01T09:21:38.501Z,92.00
2022-12-01T09:24:08.468Z,92.00
2022-12-01T09:26:37.246Z,92.00
2022-12-01T09:29:10.875Z,92.00
2022-12-01T09:31:39.506Z,92.00
2022-12-01T09:34:13.201Z,92.00
2022-12-01T09:36:41.750Z,92.00
2022-12-01T09:39:13.927Z,92.20
2022-12-01T09:41:46.015Z,92.00
2022-12-01T09:44:23.678Z,92.00
2022-12-01T09:46:59.005Z,92.00
2022-12-01T09:49:45.334Z,92.00
2022-12-01T09:52:17.318Z,92.50
2022-12-01T09:54:46.583Z,92.00
2022-12-01T09:57:25.365Z,92.00
2022-12-01T09:59:56.864Z,92.00
2022-12-01T10:02:32.911Z,92.00
2022-12-01T10:05:04.951Z,92.00
2022-12-01T10:07:38.232Z,92.00
2022-12-01T10:10:13.102Z,92.00
2022-12-01T10:12:44.393Z,92.00
2022-12-01T10:15:24.047Z,92.00
2022-12-01T10:18:07.228Z,92.00
2022-12-01T10:20:42.410Z,92.00
2022-12-01T10:23:31.330Z,92.00
2022-12-01T10:26:04.731Z,92.00
2022-12-01T10:28:58.392Z,92.00
2022-12-01T10:31:35.541Z,92.10
2022-12-01T10:34:08.857Z,92.00
2022-12-01T10:36:37.567Z,92.00
2022-12-01T10:39:08.079Z,92.10
2022-12-01T10:41:40.245Z,92.00
2022-12-01T10:44:09.849Z,92.00
2022-12-01T10:46:46.102Z,92.00
2022-12-01T10:49:16.660Z,92.00
2022-12-01T10:51:51.513Z,92.00
2022-12-01T10:54:21.401Z,92.00
2022-12-01T10:56:53.471Z,92.00
2022-12-01T10:59:33.337Z,92.10
2022-12-01T11:02:05.359Z,92.10
2022-12-01T11:04:45.888Z,92.10
2022-12-01T11:07:20.862Z,92.10
2022-12-01T11:10:01.336Z,92.10
2022-12-01T11:12:34.130Z,92.00
2022-12-01T11:15:03.492Z,92.00
2022-12-01T11:17:37.521Z,92.00
2022-12-01T11:20:30.069Z,92.00
2022-12-01T11:23:25.419Z,92.00
2022-12-01T11:26:04.778Z,92.00
2022-12-01T11:28:35.868Z,92.10
2022-12-01T11:31:06.990Z,92.00
2022-12-01T11:33:48.424Z,92.00
2022-12-01T11:36:40.414Z,92.00
2022-12-01T11:39:22.604Z,92.00
2022-12-01T11:41:57.863Z,92.00
2022-12-01T11:47:23.714Z,92.00
2022-12-01T11:49:57.933Z,92.00
2022-12-01T11:52:30.226Z,92.00
2022-12-01T11:55:21.928Z,92.00
2022-12-01T11:57:57.133Z,92.00
2022-12-01T12:00:28.263Z,92.00
2022-12-01T12:03:20.083Z,92.00
2022-12-01T12:06:39.526Z,92.10
2022-12-01T12:09:28.250Z,92.00
2022-12-01T12:12:07.763Z,92.00
2022-12-01T12:14:59.489Z,92.00
2022-12-01T12:17:47.446Z,92.00
2022-12-01T12:20:34.558Z,92.00
2022-12-01T12:23:24.732Z,92.00
2022-12-01T12:26:04.171Z,92.10
2022-12-01T12:28:48.280Z,92.00
2022-12-01T12:31:24.990Z,92.00
2022-12-01T12:34:22.766Z,92.00
2022-12-01T12:37:02.695Z,92.00
2022-12-01T12:39:41.724Z,92.10
2022-12-01T12:42:21.198Z,92.00
2022-12-01T12:44:52.672Z,92.00
2022-12-01T12:47:39.019Z,92.00
2022-12-01T12:50:19.938Z,92.00
2022-12-01T12:52:53.438Z,92.00
2022-12-01T12:55:27.625Z,92.00
2022-12-01T12:58:00.375Z,92.00
2022-12-01T13:00:30.444Z,92.10
2022-12-01T13:03:06.255Z,92.10
2022-12-01T13:05:40.147Z,92.20
2022-12-01T13:08:15.183Z,92.10
2022-12-01T13:10:50.381Z,92.10
2022-12-01T13:13:28.961Z,92.10
2022-12-01T13:15:59.848Z,92.10
2022-12-01T13:18:35.119Z,92.00
2022-12-01T13:21:05.731Z,92.10
2022-12-01T13:23:36.688Z,92.00
2022-12-01T13:26:09.592Z,92.10
2022-12-01T13:28:43.181Z,92.10
2022-12-01T13:31:14.653Z,92.10
2022-12-01T13:33:54.774Z,92.00
2022-12-01T13:36:45.733Z,92.00
2022-12-01T13:39:20.649Z,92.00
2022-12-01T13:42:03.303Z,92.10
2022-12-01T13:44:38.585Z,92.00
2022-12-01T13:47:48.218Z,92.10
2022-12-01T13:51:02.653Z,92.10
2022-12-01T13:53:36.545Z,92.00
2022-12-01T13:56:28.699Z,92.00
2022-12-01T13:58:58.847Z,92.00
2022-12-01T14:01:50.334Z,92.00
2022-12-01T14:04:30.364Z,92.00
2022-12-01T14:07:20.840Z,92.00
2022-12-01T14:09:53.075Z,92.00
2022-12-01T14:12:28.671Z,92.00
2022-12-01T14:15:02.711Z,92.00
2022-12-01T14:17:33.197Z,92.00
2022-12-01T14:20:08.521Z,92.00
2022-12-01T14:22:40.514Z,92.00
2022-12-01T14:25:25.725Z,92.00
2022-12-01T14:27:56.519Z,91.90
2022-12-01T14:31:07.239Z,92.00
2022-12-01T14:34:00.009Z,91.90
2022-12-01T14:36:40.726Z,92.00
2022-12-01T14:39:15.938Z,92.00
2022-12-01T14:41:47.834Z,91.90
2022-12-01T14:44:27.745Z,92.00
2022-12-01T14:47:03.244Z,92.00
2022-12-01T14:49:35.659Z,92.00
2022-12-01T14:52:22.113Z,92.00
2022-12-01T14:54:53.102Z,92.00
2022-12-01T14:57:25.931Z,92.10
2022-12-01T15:00:06.247Z,92.00
2022-12-01T15:02:40.668Z,91.90
2022-12-01T15:05:14.252Z,91.90
2022-12-01T15:07:47.310Z,91.90
2022-12-01T15:10:21.537Z,91.90
2022-12-01T15:12:50.634Z,91.90
2022-12-01T15:15:24.337Z,92.00
2022-12-01T15:17:57.784Z,92.00
2022-12-01T15:20:30.814Z,92.00
2022-12-01T15:23:01.469Z,92.00
2022-12-01T15:25:35.735Z,92.00
2022-12-01T15:28:13.477Z,92.00
2022-12-01T15:30:43.805Z,92.00
2022-12-01T15:33:26.758Z,92.00
2022-12-01T15:35:57.458Z,91.90
2022-12-01T15:38:29.793Z,91.90
2022-12-01T15:41:30.757Z,91.90
2022-12-01T15:43:57.292Z,91.90
2022-12-01T15:46:30.489Z,92.40
2022-12-01T15:49:17.314Z,91.90
2022-12-01T15:51:46.524Z,91.90
2022-12-01T15:54:22.052Z,91.90
2022-12-01T15:56:54.953Z,91.90
2022-12-01T15:59:31.094Z,91.90
2022-12-01T16:02:01.383Z,91.90
2022-12-01T16:04:35.490Z,91.90
2022-12-01T16:07:09.323Z,92.40
2022-12-01T16:09:39.380Z,92.00
2022-12-01T16:12:23.294Z,91.90
2022-12-01T16:14:55.431Z,91.90
2022-12-01T16:17:25.010Z,91.90
2022-12-01T16:20:31.903Z,91.90
2022-12-01T16:23:06.246Z,91.90
2022-12-01T16:25:38.316Z,91.90
2022-12-01T16:28:08.956Z,91.90
2022-12-01T16:30:40.139Z,91.90
2022-12-01T16:33:17.205Z,91.90
2022-12-01T16:35:46.609Z,91.90
2022-12-01T16:38:20.726Z,91.90
2022-12-01T16:40:50.868Z,91.90
2022-12-01T16:43:21.731Z,91.90
2022-12-01T16:45:53.233Z,91.90
2022-12-01T16:48:21.922Z,91.90
2022-12-01T16:50:51.447Z,91.90
2022-12-01T16:53:23.595Z,91.90
2022-12-01T16:55:54.879Z,91.90
2022-12-01T16:58:23.993Z,91.90
2022-12-01T17:00:53.579Z,91.90
2022-12-01T17:03:24.502Z,91.90
2022-12-01T17:05:54.461Z,91.90
2022-12-01T17:08:27.706Z,91.90
2022-12-01T17:10:57.121Z,91.90
2022-12-01T17:13:25.888Z,91.90
2022-12-01T17:15:56.026Z,91.90
2022-12-01T17:18:25.242Z,91.90
2022-12-01T17:21:00.619Z,91.90
2022-12-01T17:23:32.753Z,91.90
2022-12-01T17:26:02.174Z,91.90
2022-12-01T17:28:31.558Z,91.90
2022-12-01T17:31:01.932Z,92.00
2022-12-01T17:33:30.847Z,91.90
2022-12-01T17:36:02.377Z,91.90
2022-12-01T17:38:35.108Z,91.90
2022-12-01T17:41:07.731Z,91.90
2022-12-01T17:43:37.329Z,91.90
2022-12-01T17:46:08.173Z,91.90
2022-12-01T17:48:38.067Z,91.90
2022-12-01T17:51:08.976Z,91.90
2022-12-01T17:53:40.368Z,91.90
2022-12-01T17:56:10.500Z,91.90
2022-12-01T17:58:39.563Z,91.90
2022-12-01T18:01:13.413Z,91.90
2022-12-01T18:03:42.347Z,91.90
2022-12-01T18:06:13.185Z,91.90
2022-12-01T18:08:43.321Z,91.90
2022-12-01T18:11:14.383Z,91.90
2022-12-01T18:13:44.943Z,91.90
2022-12-01T18:16:16.615Z,91.90
2022-12-01T18:18:45.364Z,91.90
2022-12-01T18:21:15.935Z,91.90
2022-12-01T18:23:50.319Z,91.90
2022-12-01T18:26:19.634Z,91.80
2022-12-01T18:28:48.126Z,91.90
2022-12-01T18:31:17.998Z,91.80
2022-12-01T18:33:46.901Z,91.90
2022-12-01T18:36:17.753Z,91.90
2022-12-01T18:38:48.475Z,91.90
2022-12-01T18:41:17.993Z,91.90
2022-12-01T18:43:47.294Z,91.90
2022-12-01T18:46:18.057Z,91.90
2022-12-01T18:48:47.525Z,91.90
2022-12-01T18:51:17.183Z,91.90
2022-12-01T18:53:47.506Z,91.80
2022-12-01T18:56:17.337Z,91.80
2022-12-01T18:58:46.314Z,91.80
2022-12-01T19:01:21.675Z,91.80
2022-12-01T19:03:50.803Z,91.80
2022-12-01T19:06:19.687Z,91.80
2022-12-01T19:08:51.110Z,91.80
2022-12-01T19:11:20.211Z,91.80
2022-12-01T19:13:49.567Z,91.80
2022-12-01T19:16:20.105Z,91.80
2022-12-01T19:18:48.840Z,91.80
2022-12-01T19:21:20.132Z,91.80
2022-12-01T19:23:50.321Z,91.80
2022-12-01T19:26:21.125Z,91.80
2022-12-01T19:28:50.324Z,91.80
2022-12-01T19:31:22.853Z,91.80
2022-12-01T19:33:53.448Z,91.80
2022-12-01T19:36:24.089Z,91.80
2022-12-01T19:38:54.651Z,91.80
2022-12-01T19:41:29.050Z,91.80
2022-12-01T19:43:59.832Z,91.80
2022-12-01T19:46:29.193Z,91.80
2022-12-01T19:49:00.540Z,91.80
2022-12-01T19:51:31.492Z,91.80
2022-12-01T19:54:01.880Z,91.80
2022-12-01T19:56:31.362Z,91.80
2022-12-01T19:59:01.078Z,91.80
2022-12-01T20:01:29.918Z,91.80
2022-12-01T20:03:58.931Z,91.80
2022-12-01T20:06:29.963Z,91.80
2022-12-01T20:09:00.452Z,91.80
2022-12-01T20:11:32.933Z,91.80
2022-12-01T20:14:02.334Z,91.80
2022-12-01T20:16:32.202Z,91.80
2022-12-01T20:19:02.988Z,91.80
2022-12-01T20:21:33.168Z,91.80
2022-12-01T20:24:03.578Z,91.80
2022-12-01T20:26:36.011Z,91.80
2022-12-01T20:29:07.489Z,91.80
2022-12-01T20:31:36.933Z,91.80
2022-12-01T20:34:09.462Z,91.80
2022-12-01T20:36:39.540Z,91.80
2022-12-01T20:39:10.280Z,91.80
2022-12-01T20:41:41.602Z,91.80
2022-12-01T20:44:15.906Z,91.80
2022-12-01T20:46:47.516Z,91.80
2022-12-01T20:49:18.199Z,91.80
2022-12-01T20:51:47.800Z,91.80
2022-12-01T20:54:33.792Z,91.80
2022-12-01T20:57:03.968Z,91.80
2022-12-01T20:59:32.702Z,91.80
2022-12-01T21:02:01.392Z,91.70
2022-12-01T21:04:30.143Z,91.70
2022-12-01T21:06:59.432Z,91.80
2022-12-01T21:09:28.254Z,91.70
2022-12-01T21:12:17.418Z,91.70
2022-12-01T21:14:56.019Z,91.80
2022-12-01T21:17:32.944Z,91.70
2022-12-01T21:20:07.326Z,91.70
2022-12-01T21:22:36.884Z,91.70
2022-12-01T21:25:11.994Z,91.70
2022-12-01T21:27:40.531Z,91.70
2022-12-01T21:30:19.564Z,91.70
2022-12-01T21:32:49.353Z,91.70
2022-12-01T21:35:21.467Z,91.70
2022-12-01T21:37:50.832Z,91.70
2022-12-01T21:40:22.155Z,91.70
2022-12-01T21:42:51.578Z,91.70
2022-12-01T21:45:27.041Z,91.80
2022-12-01T21:48:15.085Z,91.70
2022-12-01T21:50:43.720Z,91.70
2022-12-01T21:53:17.487Z,91.70
2022-12-01T21:55:47.808Z,91.50
2022-12-01T21:58:35.600Z,91.60
2022-12-01T22:01:17.299Z,91.60
2022-12-01T22:03:47.326Z,91.60
2022-12-01T22:06:31.127Z,91.60
2022-12-01T22:09:02.492Z,91.60
2022-12-01T22:11:32.729Z,91.70
2022-12-01T22:14:12.334Z,91.60
2022-12-01T22:16:45.388Z,91.70
2022-12-01T22:19:43.251Z,91.60
2022-12-01T22:22:23.388Z,91.60
2022-12-01T22:24:53.891Z,91.60
2022-12-01T22:27:28.765Z,91.60
2022-12-01T22:30:03.223Z,91.60
2022-12-01T22:32:45.766Z,91.50
2022-12-01T22:35:34.533Z,91.60
2022-12-01T22:38:33.351Z,91.60
2022-12-01T22:41:05.518Z,91.60
2022-12-01T22:43:47.153Z,91.50
2022-12-01T22:46:34.831Z,91.60
2022-12-01T22:49:19.410Z,91.60
2022-12-01T22:51:50.518Z,91.60
2022-12-01T22:54:38.796Z,91.60
2022-12-01T22:57:26.763Z,91.60
2022-12-01T22:59:56.419Z,91.60
2022-12-01T23:02:28.399Z,91.60
2022-12-01T23:05:01.816Z,91.50
2022-12-01T23:07:42.481Z,91.50
2022-12-01T23:10:15.869Z,91.60
2022-12-01T23:12:45.256Z,91.60
2022-12-01T23:15:23.319Z,91.60
2022-12-01T23:17:52.614Z,91.60
2022-12-01T23:20:48.410Z,91.60
2022-12-01T23:23:18.881Z,91.50
2022-12-01T23:25:49.961Z,91.50
2022-12-01T23:28:19.546Z,91.50
2022-12-01T23:30:52.192Z,91.50
2022-12-01T23:33:22.775Z,92.00
2022-12-01T23:35:57.512Z,91.60
2022-12-01T23:38:29.727Z,91.50
2022-12-01T23:41:03.783Z,91.60
2022-12-01T23:43:38.638Z,91.50
2022-12-01T23:46:09.817Z,91.50
2022-12-01T23:48:41.181Z,91.50
2022-12-01T23:51:17.160Z,91.50
2022-12-01T23:53:46.001Z,91.50
2022-12-01T23:56:18.363Z,91.50
2022-12-01T23:58:47.188Z,91.50
